Elizabeth Anne — WDI5309 — position and weather

sailwx.info

Track history (hours):
 
Tides and Currents Weather Stations Pressure Air Temp Water Temp Dewpoint Dewpoint Depression Visibility Wind Speed Wind Dir Waves Ship Positions

Elizabeth Anne

Owner: Vane Line Bunkering, Inc., Philadelphia, PA. More information available from US FCC via Universal Licensing System and Coast Guard Vessel Documentation Center.

Last reported at 2017-Dec-15 00:12 UTC. Time now 2017-Dec-15 08:14 UTC.
Position N 36°59' W 076°20'.

; draft 5 m.

Type: Tug. MMSI: 369008000.

Date/timePositionNaut miles runAvg speedWind from/ knotsBaromVisibWave heightAir tempDewpointWater temp
2017-Dec-15 00:12N 36°59' W 076°20'  
2017-Dec-12 01:41N 36°57' W 076°24'2 6.3
2017-Dec-12 01:26N 36°58' W 076°22'112 6.8
2017-Dec-11 08:53N 38°50' W 076°25'3 8.4
2017-Dec-11 08:29N 38°53' W 076°24'7 8.4
2017-Dec-11 07:41N 38°60' W 076°23'2 8.9
2017-Dec-11 07:30N 39°01' W 076°22'4 8.6
2017-Dec-11 06:59N 39°05' W 076°19'4 8.2
2017-Dec-11 06:30N 39°09' W 076°19'4 8.1
2017-Dec-11 06:00N 39°12' W 076°16'4 7.5
2017-Dec-11 05:30N 39°16' W 076°14'4 7.1
2017-Dec-11 04:54N 39°19' W 076°12'1 2.6
2017-Dec-11 04:30N 39°20' W 076°11'4 7.7
2017-Dec-11 04:00N 39°22' W 076°07'4 8.4
2017-Dec-11 03:30N 39°24' W 076°02'4 8.3
2017-Dec-11 03:00N 39°27' W 075°59'4 8.7
2017-Dec-11 02:31N 39°30' W 075°55'4 8.7
2017-Dec-11 02:00N 39°32' W 075°49'4 8.5
2017-Dec-11 01:30N 39°32' W 075°44'5 9.3
2017-Dec-11 01:00N 39°33' W 075°38'4 8.3
2017-Dec-11 00:30N 39°33' W 075°33'1 1.7
2017-Dec-11 00:00N 39°32' W 075°33'0 0.0
2017-Dec-10 23:31N 39°32' W 075°33'0 0.0
2017-Dec-10 23:01N 39°32' W 075°33'0 0.0
2017-Dec-10 22:30N 39°32' W 075°33'0 0.0
2017-Dec-10 22:00N 39°32' W 075°33'0 0.0
2017-Dec-10 21:30N 39°32' W 075°33'3 6.3
2017-Dec-10 21:01N 39°29' W 075°34'510.0
2017-Dec-10 20:30N 39°25' W 075°31'4 7.2
2017-Dec-10 20:01N 39°22' W 075°28'2 3.2
2017-Dec-10 19:30N 39°23' W 075°29'3 5.9
2017-Dec-10 19:00N 39°26' W 075°32'4 7.5
2017-Dec-10 18:30N 39°29' W 075°34'3 6.6
2017-Dec-10 18:00N 39°32' W 075°33'0 0.3
2017-Dec-10 17:30N 39°32' W 075°33'0 0.1
2017-Dec-10 17:00N 39°32' W 075°33'0 0.0
2017-Dec-10 16:30N 39°32' W 075°33'0 0.0
2017-Dec-10 16:00N 39°32' W 075°33'0 0.0
2017-Dec-10 15:30N 39°32' W 075°33'0 0.0
2017-Dec-10 15:01N 39°32' W 075°33'0 0.0
2017-Dec-10 14:31N 39°32' W 075°33'0 0.0
2017-Dec-10 14:00N 39°32' W 075°33'0 0.0
2017-Dec-10 13:30N 39°32' W 075°33'0 0.0
2017-Dec-10 13:01N 39°32' W 075°33'0 0.1
2017-Dec-10 12:30N 39°32' W 075°33'0 0.1
2017-Dec-10 12:01N 39°32' W 075°33'0 0.1
2017-Dec-10 11:31N 39°32' W 075°33'0 0.1
2017-Dec-10 11:01N 39°32' W 075°33'0 0.0
2017-Dec-10 10:30N 39°32' W 075°33'0 0.1
2017-Dec-10 10:01N 39°32' W 075°33'0 0.0
2017-Dec-10 09:30N 39°32' W 075°33'0 0.0
2017-Dec-10 09:00N 39°32' W 075°33'0 0.0
2017-Dec-10 08:30N 39°32' W 075°33'0 0.0
2017-Dec-10 08:00N 39°32' W 075°33'0 0.0
2017-Dec-10 07:30N 39°32' W 075°33'0 0.0
2017-Dec-10 07:01N 39°32' W 075°33'0 0.1
2017-Dec-10 06:31N 39°32' W 075°33'0 0.1
2017-Dec-10 06:01N 39°32' W 075°33'0 0.0
2017-Dec-10 05:30N 39°32' W 075°33'0 0.1
2017-Dec-10 05:00N 39°32' W 075°33'0 0.0
2017-Dec-10 04:30N 39°32' W 075°33'0 0.1
2017-Dec-10 04:00N 39°32' W 075°33'0 0.0
2017-Dec-10 03:30N 39°32' W 075°33'0 0.0
2017-Dec-10 03:00N 39°32' W 075°33'0 0.0
2017-Dec-10 02:30N 39°32' W 075°33'0 0.0
2017-Dec-10 02:00N 39°32' W 075°33'0 0.0
2017-Dec-10 01:30N 39°32' W 075°33'0 0.0
2017-Dec-10 01:00N 39°32' W 075°33'0 0.0
2017-Dec-10 00:30N 39°32' W 075°33'0 0.0
2017-Dec-10 00:00N 39°32' W 075°33'0 0.0
2017-Dec-09 23:31N 39°32' W 075°33'0 0.0
2017-Dec-09 23:01N 39°32' W 075°33'0 0.0
2017-Dec-09 22:30N 39°32' W 075°33'0 0.0
2017-Dec-09 22:01N 39°32' W 075°33'0 0.2
2017-Dec-09 21:30N 39°32' W 075°33'0 0.1
2017-Dec-09 21:00N 39°32' W 075°33'0 0.0
2017-Dec-09 20:30N 39°32' W 075°33'0 0.1
2017-Dec-09 20:00N 39°32' W 075°33'0 0.0
2017-Dec-09 19:31N 39°32' W 075°33'0 0.0
2017-Dec-09 19:00N 39°32' W 075°33'0 0.0
2017-Dec-09 18:30N 39°32' W 075°33'0 0.2
2017-Dec-09 18:00N 39°32' W 075°33'0 0.2
2017-Dec-09 17:30N 39°32' W 075°33'0 0.1
2017-Dec-09 17:00N 39°32' W 075°33'0 0.1
2017-Dec-09 16:30N 39°32' W 075°33'0 0.0
2017-Dec-09 16:00N 39°32' W 075°33'0 0.0
2017-Dec-09 15:30N 39°32' W 075°33'0 0.0
2017-Dec-09 15:00N 39°32' W 075°33'0 0.0
2017-Dec-09 14:30N 39°32' W 075°33'0 0.0
2017-Dec-09 14:00N 39°32' W 075°33'0 0.0
2017-Dec-09 13:30N 39°32' W 075°33'0 0.0
2017-Dec-09 13:00N 39°32' W 075°33'0 0.1
2017-Dec-09 12:30N 39°32' W 075°33'0 0.0
2017-Dec-09 12:00N 39°32' W 075°33'0 0.0
2017-Dec-09 11:30N 39°32' W 075°33'0 0.0
2017-Dec-09 11:00N 39°32' W 075°33'0 0.1
2017-Dec-09 10:30N 39°32' W 075°33'0 0.1
2017-Dec-09 10:00N 39°32' W 075°33'0 0.1
2017-Dec-09 09:30N 39°32' W 075°33'0 0.0
2017-Dec-09 09:01N 39°32' W 075°33'0 0.0
2017-Dec-09 08:30N 39°32' W 075°33'0 0.5
2017-Dec-09 08:00N 39°32' W 075°33'3 6.1
2017-Dec-09 07:31N 39°35' W 075°34'3 6.1
2017-Dec-09 07:00N 39°38' W 075°34'3 7.0
2017-Dec-09 06:31N 39°41' W 075°31'4 7.4
2017-Dec-09 06:00N 39°44' W 075°30'4 8.1
2017-Dec-09 05:30N 39°48' W 075°26'5 9.3
2017-Dec-09 05:00N 39°50' W 075°21'5 9.3
2017-Dec-09 04:30N 39°51' W 075°15'4 7.5
2017-Dec-09 04:00N 39°54' W 075°12'1 2.3
2017-Dec-09 03:31N 39°55' W 075°13'0 0.0
2017-Dec-09 03:00N 39°55' W 075°13'1 2.1
2017-Dec-09 02:31N 39°54' W 075°12'0 0.0
2017-Dec-09 02:00N 39°54' W 075°12'0 0.0
2017-Dec-09 01:30N 39°54' W 075°12'0 0.0
2017-Dec-09 01:00N 39°54' W 075°12'0 0.0
2017-Dec-09 00:30N 39°54' W 075°12'0 0.0
2017-Dec-09 00:01N 39°54' W 075°12'0 0.0
2017-Dec-08 23:30N 39°54' W 075°12'0 0.0
2017-Dec-08 23:00N 39°54' W 075°12'0 0.0
2017-Dec-08 22:30N 39°54' W 075°12'0 0.0
2017-Dec-08 22:01N 39°54' W 075°12'0 0.0
2017-Dec-08 21:30N 39°54' W 075°12'0 0.4
2017-Dec-08 21:01N 39°54' W 075°12'0 0.4
2017-Dec-08 20:31N 39°54' W 075°12'0 0.0
2017-Dec-08 20:00N 39°54' W 075°12'0 0.0
2017-Dec-08 19:30N 39°54' W 075°12'0 0.0
2017-Dec-08 19:00N 39°54' W 075°12'0 0.0
2017-Dec-08 18:31N 39°54' W 075°12'0 0.0
2017-Dec-08 18:00N 39°54' W 075°12'0 0.0
2017-Dec-08 17:30N 39°54' W 075°12'0 0.0
2017-Dec-08 17:01N 39°54' W 075°12'0 0.0
2017-Dec-08 16:31N 39°54' W 075°12'1 1.2
2017-Dec-08 16:00N 39°54' W 075°12'0 0.0
2017-Dec-08 15:30N 39°54' W 075°12'0 0.0
2017-Dec-08 15:00N 39°54' W 075°12'0 0.0
2017-Dec-08 14:30N 39°54' W 075°12'0 0.0
2017-Dec-08 14:01N 39°54' W 075°12'0 0.0
2017-Dec-08 13:30N 39°53' W 075°12'1 1.4
2017-Dec-08 13:01N 39°54' W 075°12'1 1.9
2017-Dec-08 12:30N 39°55' W 075°13'0 0.4
2017-Dec-08 12:00N 39°54' W 075°13'2 3.7
2017-Dec-08 11:31N 39°53' W 075°12'1 1.0
2017-Dec-08 11:00N 39°52' W 075°12'0 0.9
2017-Dec-08 10:31N 39°52' W 075°13'2 3.4
2017-Dec-08 10:00N 39°51' W 075°15'2 4.8
2017-Dec-08 09:30N 39°51' W 075°18'2 4.5
2017-Dec-08 09:01N 39°51' W 075°21'2 4.4
2017-Dec-08 08:30N 39°49' W 075°23'3 5.1
2017-Dec-08 08:00N 39°48' W 075°26'3 5.7
2017-Dec-08 07:30N 39°46' W 075°29'3 5.1
2017-Dec-08 07:01N 39°44' W 075°30'3 5.4
2017-Dec-08 06:31N 39°41' W 075°31'3 6.3
2017-Dec-08 06:01N 39°39' W 075°34'3 6.2
2017-Dec-08 05:30N 39°35' W 075°34'4 7.0
2017-Dec-08 05:01N 39°32' W 075°33'4 7.6
2017-Dec-08 04:30N 39°28' W 075°34'4 7.2
2017-Dec-08 04:01N 39°25' W 075°31'4 7.6
2017-Dec-08 03:30N 39°22' W 075°28'4 7.6
2017-Dec-08 03:00N 39°20' W 075°24'4 7.4
2017-Dec-08 02:30N 39°17' W 075°21'3 7.0
2017-Dec-08 02:00N 39°14' W 075°18'3 7.0
2017-Dec-08 01:31N 39°11' W 075°16'4 7.1
2017-Dec-08 01:00N 39°08' W 075°14'3 7.0
2017-Dec-08 00:30N 39°05' W 075°11'3 6.8
2017-Dec-08 00:00N 39°02' W 075°10'3 6.6
2017-Dec-07 23:30N 38°59' W 075°08'58 4.3
2017-Dec-07 09:57N 39°31' W 074°06'3 6.3
2017-Dec-07 09:30N 39°34' W 074°04'3 6.3
2017-Dec-07 09:00N 39°37' W 074°03'3 6.4
2017-Dec-07 08:30N 39°40' W 074°02'3 6.4
2017-Dec-07 08:00N 39°43' W 073°59'3 6.5
2017-Dec-07 07:30N 39°46' W 073°58'3 6.5
2017-Dec-07 06:59N 39°49' W 073°58'3 6.5
2017-Dec-07 06:30N 39°52' W 073°57'37 6.1
2017-Dec-07 00:22N 40°30' W 073°56'2 5.0
2017-Dec-07 00:00N 40°30' W 073°58'2 4.9
2017-Dec-06 23:30N 40°31' W 074°01'3 6.0
2017-Dec-06 22:58N 40°35' W 074°02'1 1.6
2017-Dec-06 22:30N 40°35' W 074°02'4 7.6
2017-Dec-06 22:00N 40°39' W 074°04'2 4.0
2017-Dec-06 21:30N 40°39' W 074°07'0 0.0
2017-Dec-06 21:00N 40°39' W 074°07'  
Track history (hours):
 
Tides and Currents Weather Stations Pressure Air Temp Water Temp Dewpoint Dewpoint Depression Visibility Wind Speed Wind Dir Waves Ship Positions

Elizabeth Anne

Owner: Vane Line Bunkering, Inc., Philadelphia, PA. More information available from US FCC via Universal Licensing System and Coast Guard Vessel Documentation Center.

Last reported at 2017-Dec-15 00:12 UTC. Time now 2017-Dec-15 08:14 UTC.
Position N 36°59' W 076°20'.

; draft 5 m.

Type: Tug. MMSI: 369008000.

Date/timePositionNaut miles runAvg speedWind from/ knotsBaromVisibWave heightAir tempDewpointWater temp
2017-Dec-15 00:12N 36°59' W 076°20'  
2017-Dec-12 01:41N 36°57' W 076°24'2 6.3
2017-Dec-12 01:26N 36°58' W 076°22'112 6.8
2017-Dec-11 08:53N 38°50' W 076°25'3 8.4
2017-Dec-11 08:29N 38°53' W 076°24'7 8.4
2017-Dec-11 07:41N 38°60' W 076°23'2 8.9
2017-Dec-11 07:30N 39°01' W 076°22'4 8.6
2017-Dec-11 06:59N 39°05' W 076°19'4 8.2
2017-Dec-11 06:30N 39°09' W 076°19'4 8.1
2017-Dec-11 06:00N 39°12' W 076°16'4 7.5
2017-Dec-11 05:30N 39°16' W 076°14'4 7.1
2017-Dec-11 04:54N 39°19' W 076°12'1 2.6
2017-Dec-11 04:30N 39°20' W 076°11'4 7.7
2017-Dec-11 04:00N 39°22' W 076°07'4 8.4
2017-Dec-11 03:30N 39°24' W 076°02'4 8.3
2017-Dec-11 03:00N 39°27' W 075°59'4 8.7
2017-Dec-11 02:31N 39°30' W 075°55'4 8.7
2017-Dec-11 02:00N 39°32' W 075°49'4 8.5
2017-Dec-11 01:30N 39°32' W 075°44'5 9.3
2017-Dec-11 01:00N 39°33' W 075°38'4 8.3
2017-Dec-11 00:30N 39°33' W 075°33'1 1.7
2017-Dec-11 00:00N 39°32' W 075°33'0 0.0
2017-Dec-10 23:31N 39°32' W 075°33'0 0.0
2017-Dec-10 23:01N 39°32' W 075°33'0 0.0
2017-Dec-10 22:30N 39°32' W 075°33'0 0.0
2017-Dec-10 22:00N 39°32' W 075°33'0 0.0
2017-Dec-10 21:30N 39°32' W 075°33'3 6.3
2017-Dec-10 21:01N 39°29' W 075°34'510.0
2017-Dec-10 20:30N 39°25' W 075°31'4 7.2
2017-Dec-10 20:01N 39°22' W 075°28'2 3.2
2017-Dec-10 19:30N 39°23' W 075°29'3 5.9
2017-Dec-10 19:00N 39°26' W 075°32'4 7.5
2017-Dec-10 18:30N 39°29' W 075°34'3 6.6
2017-Dec-10 18:00N 39°32' W 075°33'0 0.3
2017-Dec-10 17:30N 39°32' W 075°33'0 0.1
2017-Dec-10 17:00N 39°32' W 075°33'0 0.0
2017-Dec-10 16:30N 39°32' W 075°33'0 0.0
2017-Dec-10 16:00N 39°32' W 075°33'0 0.0
2017-Dec-10 15:30N 39°32' W 075°33'0 0.0
2017-Dec-10 15:01N 39°32' W 075°33'0 0.0
2017-Dec-10 14:31N 39°32' W 075°33'0 0.0
2017-Dec-10 14:00N 39°32' W 075°33'0 0.0
2017-Dec-10 13:30N 39°32' W 075°33'0 0.0
2017-Dec-10 13:01N 39°32' W 075°33'0 0.1
2017-Dec-10 12:30N 39°32' W 075°33'0 0.1
2017-Dec-10 12:01N 39°32' W 075°33'0 0.1
2017-Dec-10 11:31N 39°32' W 075°33'0 0.1
2017-Dec-10 11:01N 39°32' W 075°33'0 0.0
2017-Dec-10 10:30N 39°32' W 075°33'0 0.1
2017-Dec-10 10:01N 39°32' W 075°33'0 0.0
2017-Dec-10 09:30N 39°32' W 075°33'0 0.0
2017-Dec-10 09:00N 39°32' W 075°33'0 0.0
2017-Dec-10 08:30N 39°32' W 075°33'0 0.0
2017-Dec-10 08:00N 39°32' W 075°33'0 0.0
2017-Dec-10 07:30N 39°32' W 075°33'0 0.0
2017-Dec-10 07:01N 39°32' W 075°33'0 0.1
2017-Dec-10 06:31N 39°32' W 075°33'0 0.1
2017-Dec-10 06:01N 39°32' W 075°33'0 0.0
2017-Dec-10 05:30N 39°32' W 075°33'0 0.1
2017-Dec-10 05:00N 39°32' W 075°33'0 0.0
2017-Dec-10 04:30N 39°32' W 075°33'0 0.1
2017-Dec-10 04:00N 39°32' W 075°33'0 0.0
2017-Dec-10 03:30N 39°32' W 075°33'0 0.0
2017-Dec-10 03:00N 39°32' W 075°33'0 0.0
2017-Dec-10 02:30N 39°32' W 075°33'0 0.0
2017-Dec-10 02:00N 39°32' W 075°33'0 0.0
2017-Dec-10 01:30N 39°32' W 075°33'0 0.0
2017-Dec-10 01:00N 39°32' W 075°33'0 0.0
2017-Dec-10 00:30N 39°32' W 075°33'0 0.0
2017-Dec-10 00:00N 39°32' W 075°33'0 0.0
2017-Dec-09 23:31N 39°32' W 075°33'0 0.0
2017-Dec-09 23:01N 39°32' W 075°33'0 0.0
2017-Dec-09 22:30N 39°32' W 075°33'0 0.0
2017-Dec-09 22:01N 39°32' W 075°33'0 0.2
2017-Dec-09 21:30N 39°32' W 075°33'0 0.1
2017-Dec-09 21:00N 39°32' W 075°33'0 0.0
2017-Dec-09 20:30N 39°32' W 075°33'0 0.1
2017-Dec-09 20:00N 39°32' W 075°33'0 0.0
2017-Dec-09 19:31N 39°32' W 075°33'0 0.0
2017-Dec-09 19:00N 39°32' W 075°33'0 0.0
2017-Dec-09 18:30N 39°32' W 075°33'0 0.2
2017-Dec-09 18:00N 39°32' W 075°33'0 0.2
2017-Dec-09 17:30N 39°32' W 075°33'0 0.1
2017-Dec-09 17:00N 39°32' W 075°33'0 0.1
2017-Dec-09 16:30N 39°32' W 075°33'0 0.0
2017-Dec-09 16:00N 39°32' W 075°33'0 0.0
2017-Dec-09 15:30N 39°32' W 075°33'0 0.0
2017-Dec-09 15:00N 39°32' W 075°33'0 0.0
2017-Dec-09 14:30N 39°32' W 075°33'0 0.0
2017-Dec-09 14:00N 39°32' W 075°33'0 0.0
2017-Dec-09 13:30N 39°32' W 075°33'0 0.0
2017-Dec-09 13:00N 39°32' W 075°33'0 0.1
2017-Dec-09 12:30N 39°32' W 075°33'0 0.0
2017-Dec-09 12:00N 39°32' W 075°33'0 0.0
2017-Dec-09 11:30N 39°32' W 075°33'0 0.0
2017-Dec-09 11:00N 39°32' W 075°33'0 0.1
2017-Dec-09 10:30N 39°32' W 075°33'0 0.1
2017-Dec-09 10:00N 39°32' W 075°33'0 0.1
2017-Dec-09 09:30N 39°32' W 075°33'0 0.0
2017-Dec-09 09:01N 39°32' W 075°33'0 0.0
2017-Dec-09 08:30N 39°32' W 075°33'0 0.5
2017-Dec-09 08:00N 39°32' W 075°33'3 6.1
2017-Dec-09 07:31N 39°35' W 075°34'3 6.1
2017-Dec-09 07:00N 39°38' W 075°34'3 7.0
2017-Dec-09 06:31N 39°41' W 075°31'4 7.4
2017-Dec-09 06:00N 39°44' W 075°30'4 8.1
2017-Dec-09 05:30N 39°48' W 075°26'5 9.3
2017-Dec-09 05:00N 39°50' W 075°21'5 9.3
2017-Dec-09 04:30N 39°51' W 075°15'4 7.5
2017-Dec-09 04:00N 39°54' W 075°12'1 2.3
2017-Dec-09 03:31N 39°55' W 075°13'0 0.0
2017-Dec-09 03:00N 39°55' W 075°13'1 2.1
2017-Dec-09 02:31N 39°54' W 075°12'0 0.0
2017-Dec-09 02:00N 39°54' W 075°12'0 0.0
2017-Dec-09 01:30N 39°54' W 075°12'0 0.0
2017-Dec-09 01:00N 39°54' W 075°12'0 0.0
2017-Dec-09 00:30N 39°54' W 075°12'0 0.0
2017-Dec-09 00:01N 39°54' W 075°12'0 0.0
2017-Dec-08 23:30N 39°54' W 075°12'0 0.0
2017-Dec-08 23:00N 39°54' W 075°12'0 0.0
2017-Dec-08 22:30N 39°54' W 075°12'0 0.0
2017-Dec-08 22:01N 39°54' W 075°12'0 0.0
2017-Dec-08 21:30N 39°54' W 075°12'0 0.4
2017-Dec-08 21:01N 39°54' W 075°12'0 0.4
2017-Dec-08 20:31N 39°54' W 075°12'0 0.0
2017-Dec-08 20:00N 39°54' W 075°12'0 0.0
2017-Dec-08 19:30N 39°54' W 075°12'0 0.0
2017-Dec-08 19:00N 39°54' W 075°12'0 0.0
2017-Dec-08 18:31N 39°54' W 075°12'0 0.0
2017-Dec-08 18:00N 39°54' W 075°12'0 0.0
2017-Dec-08 17:30N 39°54' W 075°12'0 0.0
2017-Dec-08 17:01N 39°54' W 075°12'0 0.0
2017-Dec-08 16:31N 39°54' W 075°12'1 1.2
2017-Dec-08 16:00N 39°54' W 075°12'0 0.0
2017-Dec-08 15:30N 39°54' W 075°12'0 0.0
2017-Dec-08 15:00N 39°54' W 075°12'0 0.0
2017-Dec-08 14:30N 39°54' W 075°12'0 0.0
2017-Dec-08 14:01N 39°54' W 075°12'0 0.0
2017-Dec-08 13:30N 39°53' W 075°12'1 1.4
2017-Dec-08 13:01N 39°54' W 075°12'1 1.9
2017-Dec-08 12:30N 39°55' W 075°13'0 0.4
2017-Dec-08 12:00N 39°54' W 075°13'2 3.7
2017-Dec-08 11:31N 39°53' W 075°12'1 1.0
2017-Dec-08 11:00N 39°52' W 075°12'0 0.9
2017-Dec-08 10:31N 39°52' W 075°13'2 3.4
2017-Dec-08 10:00N 39°51' W 075°15'2 4.8
2017-Dec-08 09:30N 39°51' W 075°18'2 4.5
2017-Dec-08 09:01N 39°51' W 075°21'2 4.4
2017-Dec-08 08:30N 39°49' W 075°23'3 5.1
2017-Dec-08 08:00N 39°48' W 075°26'3 5.7
2017-Dec-08 07:30N 39°46' W 075°29'3 5.1
2017-Dec-08 07:01N 39°44' W 075°30'3 5.4
2017-Dec-08 06:31N 39°41' W 075°31'3 6.3
2017-Dec-08 06:01N 39°39' W 075°34'3 6.2
2017-Dec-08 05:30N 39°35' W 075°34'4 7.0
2017-Dec-08 05:01N 39°32' W 075°33'4 7.6
2017-Dec-08 04:30N 39°28' W 075°34'4 7.2
2017-Dec-08 04:01N 39°25' W 075°31'4 7.6
2017-Dec-08 03:30N 39°22' W 075°28'4 7.6
2017-Dec-08 03:00N 39°20' W 075°24'4 7.4
2017-Dec-08 02:30N 39°17' W 075°21'3 7.0
2017-Dec-08 02:00N 39°14' W 075°18'3 7.0
2017-Dec-08 01:31N 39°11' W 075°16'4 7.1
2017-Dec-08 01:00N 39°08' W 075°14'3 7.0
2017-Dec-08 00:30N 39°05' W 075°11'3 6.8
2017-Dec-08 00:00N 39°02' W 075°10'3 6.6
2017-Dec-07 23:30N 38°59' W 075°08'58 4.3
2017-Dec-07 09:57N 39°31' W 074°06'3 6.3
2017-Dec-07 09:30N 39°34' W 074°04'3 6.3
2017-Dec-07 09:00N 39°37' W 074°03'3 6.4
2017-Dec-07 08:30N 39°40' W 074°02'3 6.4
2017-Dec-07 08:00N 39°43' W 073°59'3 6.5
2017-Dec-07 07:30N 39°46' W 073°58'3 6.5
2017-Dec-07 06:59N 39°49' W 073°58'3 6.5
2017-Dec-07 06:30N 39°52' W 073°57'37 6.1
2017-Dec-07 00:22N 40°30' W 073°56'2 5.0
2017-Dec-07 00:00N 40°30' W 073°58'2 4.9
2017-Dec-06 23:30N 40°31' W 074°01'3 6.0
2017-Dec-06 22:58N 40°35' W 074°02'1 1.6
2017-Dec-06 22:30N 40°35' W 074°02'4 7.6
2017-Dec-06 22:00N 40°39' W 074°04'2 4.0
2017-Dec-06 21:30N 40°39' W 074°07'0 0.0
2017-Dec-06 21:00N 40°39' W 074°07'  

Dump ship's entire track history